createdAt,value
2018-03-07T00:01:36.630Z,99.90
2018-03-07T00:04:02.942Z,99.90
2018-03-07T00:06:29.255Z,99.90
2018-03-07T00:08:56.306Z,99.90
2018-03-07T00:11:24.404Z,99.90
2018-03-07T00:13:50.710Z,99.90
2018-03-07T00:16:17.026Z,99.90
2018-03-07T00:18:44.102Z,99.90
2018-03-07T00:21:10.411Z,99.90
2018-03-07T00:23:37.488Z,99.90
2018-03-07T00:26:03.789Z,99.90
2018-03-07T00:28:30.834Z,99.90
2018-03-07T00:30:57.879Z,99.90
2018-03-07T00:33:25.111Z,99.90
2018-03-07T00:35:51.439Z,99.90
2018-03-07T00:38:17.767Z,99.90
2018-03-07T00:40:44.110Z,99.90
2018-03-07T00:43:10.419Z,99.90
2018-03-07T00:45:36.742Z,99.90
2018-03-07T00:48:03.082Z,99.90
2018-03-07T00:50:29.386Z,99.90
2018-03-07T00:52:55.707Z,99.90
2018-03-07T00:55:22.019Z,99.90
2018-03-07T00:57:48.359Z,99.90
2018-03-07T01:00:14.702Z,99.90
2018-03-07T01:02:41.035Z,99.90
2018-03-07T01:05:07.346Z,99.90
2018-03-07T01:07:33.695Z,99.90
2018-03-07T01:10:00.003Z,99.90
2018-03-07T01:12:26.595Z,99.90
2018-03-07T01:14:52.895Z,99.90
2018-03-07T01:17:19.206Z,99.90
2018-03-07T01:19:46.527Z,99.90
2018-03-07T01:22:14.316Z,99.90
2018-03-07T01:24:41.377Z,99.90
2018-03-07T01:27:09.060Z,99.90
2018-03-07T01:29:36.379Z,99.90
2018-03-07T01:32:03.480Z,99.90
2018-03-07T01:34:29.795Z,99.90
2018-03-07T01:36:56.131Z,99.90
2018-03-07T01:39:22.435Z,99.90
2018-03-07T01:41:48.754Z,99.90
2018-03-07T01:44:15.082Z,99.90
2018-03-07T01:46:41.402Z,99.90
2018-03-07T01:49:07.787Z,99.90
2018-03-07T01:51:46.326Z,99.90
2018-03-07T01:54:12.650Z,99.90
2018-03-07T01:56:39.843Z,99.90
2018-03-07T01:59:06.106Z,99.90
2018-03-07T02:01:32.411Z,99.90
2018-03-07T02:06:52.598Z,99.90
2018-03-07T02:09:19.650Z,99.90
2018-03-07T02:11:46.725Z,99.90
2018-03-07T02:14:13.034Z,99.90
2018-03-07T02:16:40.116Z,99.90
2018-03-07T02:19:06.486Z,99.90
2018-03-07T02:21:33.449Z,99.90
2018-03-07T02:24:00.502Z,99.90
2018-03-07T02:26:27.550Z,99.90
2018-03-07T02:28:54.935Z,99.90
2018-03-07T02:31:21.279Z,99.90
2018-03-07T02:33:47.633Z,99.90
2018-03-07T02:36:26.426Z,99.90
2018-03-07T02:38:52.759Z,99.90
2018-03-07T02:41:20.094Z,99.90
2018-03-07T02:43:46.410Z,99.90
2018-03-07T02:46:12.742Z,99.90
2018-03-07T02:48:39.083Z,99.90
2018-03-07T02:51:05.407Z,99.90
2018-03-07T02:53:31.769Z,99.90
2018-03-07T02:55:58.113Z,99.90
2018-03-07T02:58:24.426Z,99.90
2018-03-07T03:00:50.748Z,99.90
2018-03-07T03:03:17.070Z,99.90
2018-03-07T03:05:43.389Z,99.90
2018-03-07T03:08:09.710Z,99.90
2018-03-07T03:10:36.791Z,99.90
2018-03-07T03:13:03.143Z,99.90
2018-03-07T03:15:29.486Z,99.90
2018-03-07T03:17:55.800Z,99.90
2018-03-07T03:20:22.102Z,99.90
2018-03-07T03:22:49.410Z,99.90
2018-03-07T03:25:15.727Z,99.90
2018-03-07T03:27:42.038Z,99.90
2018-03-07T03:30:08.367Z,99.90
2018-03-07T03:32:35.690Z,99.90
2018-03-07T03:35:02.059Z,99.90
2018-03-07T03:37:28.386Z,99.90
2018-03-07T03:39:54.718Z,99.90
2018-03-07T03:42:21.016Z,99.90
2018-03-07T03:44:47.351Z,99.90
2018-03-07T03:47:13.706Z,99.90
2018-03-07T03:49:41.042Z,99.90
2018-03-07T03:52:07.392Z,99.90
2018-03-07T03:54:33.707Z,99.90
2018-03-07T03:57:00.028Z,99.90
2018-03-07T03:59:26.710Z,99.90
2018-03-07T04:01:53.667Z,99.90
2018-03-07T04:04:19.986Z,99.90
2018-03-07T04:06:46.301Z,99.90
2018-03-07T04:09:12.635Z,99.90
2018-03-07T04:11:38.947Z,99.90
2018-03-07T04:14:05.253Z,99.90
2018-03-07T04:16:32.315Z,99.90
2018-03-07T04:18:58.631Z,99.90
2018-03-07T04:21:25.695Z,99.90
2018-03-07T04:23:51.998Z,99.90
2018-03-07T04:26:20.047Z,99.90
2018-03-07T04:28:46.375Z,99.90
2018-03-07T04:31:15.985Z,99.90
2018-03-07T04:33:42.294Z,99.90
2018-03-07T04:36:08.608Z,99.90
2018-03-07T04:38:34.915Z,99.90
2018-03-07T04:41:01.234Z,99.90
2018-03-07T04:43:28.278Z,99.90
2018-03-07T04:45:55.375Z,99.90
2018-03-07T04:48:21.703Z,99.90
2018-03-07T04:50:48.011Z,99.90
2018-03-07T04:53:14.319Z,99.90
2018-03-07T04:55:41.365Z,99.90
2018-03-07T04:58:08.402Z,99.90
2018-03-07T05:00:34.740Z,99.90
2018-03-07T05:03:01.833Z,99.90
2018-03-07T05:05:28.146Z,99.90
2018-03-07T05:07:54.461Z,99.90
2018-03-07T05:10:22.492Z,99.90
2018-03-07T05:12:48.815Z,99.90
2018-03-07T05:15:15.126Z,99.90
2018-03-07T05:17:41.673Z,99.90
2018-03-07T05:20:07.984Z,99.90
2018-03-07T05:22:34.292Z,99.90
2018-03-07T05:25:01.346Z,99.90
2018-03-07T05:27:27.651Z,99.90
2018-03-07T05:29:54.727Z,99.90
2018-03-07T05:32:21.042Z,99.90
2018-03-07T05:34:48.086Z,99.90
2018-03-07T05:37:15.131Z,99.90
2018-03-07T05:39:42.187Z,99.90
2018-03-07T05:42:10.284Z,99.90
2018-03-07T05:44:36.598Z,99.90
2018-03-07T05:47:02.928Z,99.90
2018-03-07T05:49:29.242Z,99.90
2018-03-07T05:51:56.286Z,99.90
2018-03-07T05:54:23.351Z,99.90
2018-03-07T05:56:50.389Z,99.90
2018-03-07T05:59:17.442Z,99.90
2018-03-07T06:01:44.486Z,99.90
2018-03-07T06:04:11.534Z,99.90
2018-03-07T06:06:38.582Z,99.90
2018-03-07T06:09:05.691Z,99.90
2018-03-07T06:11:32.019Z,99.90
2018-03-07T06:13:58.323Z,99.90
2018-03-07T06:16:24.626Z,99.90
2018-03-07T06:18:51.687Z,99.90
2018-03-07T06:21:18.007Z,99.90
2018-03-07T06:23:44.315Z,99.90
2018-03-07T06:26:10.626Z,99.90
2018-03-07T06:28:36.950Z,99.90
2018-03-07T06:31:03.251Z,99.90
2018-03-07T06:33:29.563Z,99.90
2018-03-07T06:35:55.869Z,99.90
2018-03-07T06:38:22.919Z,99.90
2018-03-07T06:40:49.991Z,99.90
2018-03-07T06:43:17.295Z,99.90
2018-03-07T06:45:44.612Z,99.90
2018-03-07T06:48:11.328Z,99.90
2018-03-07T06:50:38.304Z,99.90
2018-03-07T06:53:07.721Z,99.90
2018-03-07T06:55:34.855Z,99.90
2018-03-07T06:58:01.202Z,99.90
2018-03-07T07:00:27.810Z,99.90
2018-03-07T07:02:54.129Z,99.90
2018-03-07T07:05:21.174Z,99.90
2018-03-07T07:07:48.238Z,99.90
2018-03-07T07:10:14.562Z,99.90
2018-03-07T07:12:40.865Z,99.90
2018-03-07T07:15:07.927Z,99.90
2018-03-07T07:17:34.979Z,99.90
2018-03-07T07:20:02.062Z,99.90
2018-03-07T07:22:28.693Z,99.90
2018-03-07T07:24:55.005Z,99.90
2018-03-07T07:27:21.418Z,99.90
2018-03-07T07:29:47.749Z,99.90
2018-03-07T07:32:14.812Z,99.90
2018-03-07T07:34:42.146Z,99.90
2018-03-07T07:37:09.214Z,99.90
2018-03-07T07:39:35.565Z,99.90
2018-03-07T07:42:01.876Z,99.90
2018-03-07T07:44:28.208Z,99.90
2018-03-07T07:46:54.563Z,99.90
2018-03-07T07:49:20.966Z,99.90
2018-03-07T07:51:48.109Z,99.90
2018-03-07T07:54:15.163Z,99.90
2018-03-07T07:56:43.412Z,99.90
2018-03-07T07:59:09.738Z,99.90
2018-03-07T08:01:36.059Z,99.90
2018-03-07T08:04:02.375Z,99.90
2018-03-07T08:06:28.709Z,99.90
2018-03-07T08:08:56.029Z,99.90
2018-03-07T08:11:23.086Z,99.90
2018-03-07T08:13:49.395Z,99.90
2018-03-07T08:16:17.503Z,99.90
2018-03-07T08:18:44.964Z,99.90
2018-03-07T08:21:11.261Z,99.90
2018-03-07T08:23:38.312Z,99.90
2018-03-07T08:26:05.366Z,99.90
2018-03-07T08:28:32.406Z,99.90
2018-03-07T08:30:59.478Z,99.90
2018-03-07T08:33:26.070Z,99.90
2018-03-07T08:35:52.362Z,99.90
2018-03-07T08:38:19.667Z,99.90
2018-03-07T08:40:46.678Z,99.90
2018-03-07T08:43:12.978Z,99.90
2018-03-07T08:45:39.254Z,99.90
2018-03-07T08:48:05.562Z,99.90
2018-03-07T08:50:31.850Z,99.90
2018-03-07T08:52:58.887Z,99.90
2018-03-07T08:55:25.169Z,99.90
2018-03-07T08:57:51.458Z,99.90
2018-03-07T09:00:18.470Z,99.90
2018-03-07T09:02:44.751Z,99.90
2018-03-07T09:05:11.124Z,99.90
2018-03-07T09:07:37.440Z,99.90
2018-03-07T09:10:07.990Z,99.90
2018-03-07T09:12:35.121Z,99.90
2018-03-07T09:15:01.400Z,99.90
2018-03-07T09:17:27.684Z,99.90
2018-03-07T09:19:53.961Z,99.90
2018-03-07T09:22:20.264Z,99.90
2018-03-07T09:24:47.303Z,99.90
2018-03-07T09:27:13.588Z,99.90
2018-03-07T09:29:41.431Z,99.90
2018-03-07T09:32:08.453Z,99.90
2018-03-07T09:34:34.743Z,99.90
2018-03-07T09:37:02.821Z,99.90
2018-03-07T09:39:29.107Z,99.90
2018-03-07T09:41:55.390Z,99.90
2018-03-07T09:44:25.234Z,99.90
2018-03-07T09:46:51.543Z,99.90
2018-03-07T09:49:17.850Z,99.90
2018-03-07T09:51:44.883Z,99.90
2018-03-07T09:54:11.186Z,99.90
2018-03-07T09:56:37.526Z,99.90
2018-03-07T09:59:04.570Z,99.90
2018-03-07T10:01:30.898Z,99.90
2018-03-07T10:03:57.914Z,99.90
2018-03-07T10:06:24.185Z,99.90
2018-03-07T10:08:51.215Z,99.90
2018-03-07T10:11:17.597Z,99.90
2018-03-07T10:13:44.606Z,99.90
2018-03-07T10:16:13.146Z,99.90
2018-03-07T10:18:39.428Z,99.90
2018-03-07T10:21:05.699Z,99.90
2018-03-07T10:23:31.983Z,99.90
2018-03-07T10:25:58.316Z,99.90
2018-03-07T10:28:24.595Z,99.90
2018-03-07T10:30:50.877Z,99.90
2018-03-07T10:33:24.072Z,99.90
2018-03-07T10:35:50.342Z,99.90
2018-03-07T10:38:16.622Z,99.90
2018-03-07T10:40:42.899Z,99.90
2018-03-07T10:43:09.184Z,99.90
2018-03-07T10:45:35.474Z,99.90
2018-03-07T10:48:01.766Z,99.90
2018-03-07T10:50:28.778Z,99.90
2018-03-07T10:52:55.076Z,99.90
2018-03-07T10:55:21.363Z,99.90
2018-03-07T10:57:48.387Z,99.90
2018-03-07T11:00:20.807Z,99.90
2018-03-07T11:02:47.082Z,99.90
2018-03-07T11:05:13.599Z,99.90
2018-03-07T11:07:39.908Z,99.90
2018-03-07T11:10:06.199Z,99.90
2018-03-07T11:12:32.484Z,99.90
2018-03-07T11:14:58.782Z,99.90
2018-03-07T11:17:25.062Z,99.90
2018-03-07T11:19:51.366Z,99.90
2018-03-07T11:22:17.654Z,99.90
2018-03-07T11:24:43.997Z,99.90
2018-03-07T11:27:11.011Z,99.90
2018-03-07T11:29:37.306Z,99.90
2018-03-07T11:32:03.630Z,99.90
2018-03-07T11:34:29.998Z,99.90
2018-03-07T11:36:56.279Z,99.90
2018-03-07T11:39:23.309Z,99.90
2018-03-07T11:41:49.583Z,99.90
2018-03-07T11:44:15.877Z,99.90
2018-03-07T11:46:42.906Z,99.90
2018-03-07T11:49:09.193Z,99.90
2018-03-07T11:51:35.475Z,99.90
2018-03-07T11:54:02.522Z,99.90
2018-03-07T11:56:28.820Z,99.90
2018-03-07T11:58:55.115Z,99.90
2018-03-07T12:01:21.387Z,99.90
2018-03-07T12:03:48.111Z,99.90
2018-03-07T12:06:14.392Z,99.90
2018-03-07T12:08:41.402Z,99.90
2018-03-07T12:11:07.704Z,99.90
2018-03-07T12:13:33.994Z,99.90
2018-03-07T12:16:00.273Z,99.10
2018-03-07T12:18:26.678Z,99.40
2018-03-07T12:20:52.961Z,99.90
2018-03-07T12:23:19.224Z,99.60
2018-03-07T12:25:46.271Z,99.50
2018-03-07T12:28:13.288Z,99.90
2018-03-07T12:30:40.588Z,99.90
2018-03-07T12:33:06.887Z,98.70
2018-03-07T12:35:33.202Z,99.90
2018-03-07T12:37:59.500Z,99.90
2018-03-07T12:40:25.774Z,99.90
2018-03-07T12:42:52.078Z,99.90
2018-03-07T12:45:19.412Z,99.00
2018-03-07T12:47:45.703Z,98.50
2018-03-07T12:50:12.739Z,94.60
2018-03-07T12:52:39.019Z,94.60
2018-03-07T12:55:06.180Z,95.40
2018-03-07T12:57:32.455Z,96.10
2018-03-07T12:59:58.735Z,95.30
2018-03-07T13:02:25.038Z,93.00
2018-03-07T13:04:51.322Z,93.20
2018-03-07T13:07:17.636Z,92.70
2018-03-07T13:09:43.918Z,93.50
2018-03-07T13:12:10.950Z,95.00
2018-03-07T13:14:37.222Z,95.00
2018-03-07T13:17:03.502Z,94.90
2018-03-07T13:19:29.802Z,94.80
2018-03-07T13:21:56.102Z,93.90
2018-03-07T13:24:22.399Z,95.30
2018-03-07T13:26:49.699Z,94.90
2018-03-07T13:29:15.982Z,94.80
2018-03-07T13:31:42.269Z,95.30
2018-03-07T13:34:08.535Z,96.10
2018-03-07T13:36:34.837Z,95.50
2018-03-07T13:39:01.119Z,96.90
2018-03-07T13:41:28.523Z,96.10
2018-03-07T13:43:54.865Z,96.10
2018-03-07T13:46:21.154Z,95.20
2018-03-07T13:48:47.451Z,93.70
2018-03-07T13:51:13.747Z,94.50
2018-03-07T13:53:40.051Z,92.60
2018-03-07T13:56:06.515Z,92.60
2018-03-07T13:58:32.801Z,90.90
2018-03-07T14:00:59.838Z,87.10
2018-03-07T14:03:26.871Z,84.90
2018-03-07T14:05:53.918Z,85.30
2018-03-07T14:08:20.188Z,85.30
2018-03-07T14:10:47.230Z,81.00
2018-03-07T14:13:14.246Z,81.00
2018-03-07T14:15:40.530Z,81.00
2018-03-07T14:18:06.818Z,83.30
2018-03-07T14:20:33.118Z,86.40
2018-03-07T14:23:00.438Z,87.40
2018-03-07T14:25:26.718Z,89.80
2018-03-07T14:27:53.002Z,89.60
2018-03-07T14:30:19.274Z,90.00
2018-03-07T14:32:45.547Z,90.90
2018-03-07T14:35:11.826Z,91.90
2018-03-07T14:37:38.105Z,92.00
2018-03-07T14:40:04.420Z,91.90
2018-03-07T14:42:30.730Z,92.70
2018-03-07T14:44:57.010Z,92.80
2018-03-07T14:47:23.294Z,93.40
2018-03-07T14:49:49.575Z,92.50
2018-03-07T14:52:15.851Z,93.80
2018-03-07T14:54:42.126Z,93.70
2018-03-07T14:57:08.422Z,93.70
2018-03-07T14:59:34.706Z,93.80
2018-03-07T15:02:00.983Z,94.10
2018-03-07T15:04:27.258Z,95.10
2018-03-07T15:06:53.534Z,94.70
2018-03-07T15:09:19.811Z,96.00
2018-03-07T15:11:46.086Z,96.40
2018-03-07T15:14:12.390Z,96.40
2018-03-07T15:16:39.471Z,96.50
2018-03-07T15:19:05.763Z,96.50
2018-03-07T15:21:32.050Z,96.00
2018-03-07T15:23:59.351Z,96.00
2018-03-07T15:26:25.629Z,96.50
2018-03-07T15:28:51.911Z,97.00
2018-03-07T15:31:19.967Z,97.50
2018-03-07T15:33:46.264Z,97.50
2018-03-07T15:36:12.539Z,97.30
2018-03-07T15:38:38.805Z,97.80
2018-03-07T15:41:05.083Z,97.50
2018-03-07T15:43:31.358Z,97.60
2018-03-07T15:45:57.630Z,98.00
2018-03-07T15:48:24.730Z,98.60
2018-03-07T15:50:51.749Z,99.90
2018-03-07T15:53:18.778Z,99.80
2018-03-07T15:55:45.054Z,99.80
2018-03-07T15:58:12.076Z,99.90
2018-03-07T16:00:38.361Z,99.90
2018-03-07T16:03:04.630Z,99.90
2018-03-07T16:05:30.931Z,99.90
2018-03-07T16:07:57.225Z,99.90
2018-03-07T16:10:23.494Z,99.90
2018-03-07T16:12:49.779Z,99.90
2018-03-07T16:15:16.791Z,99.90
2018-03-07T16:17:43.063Z,99.90
2018-03-07T16:20:09.368Z,99.90
2018-03-07T16:22:36.414Z,99.90
2018-03-07T16:25:03.443Z,99.90
2018-03-07T16:27:29.717Z,99.90
2018-03-07T16:29:55.998Z,99.90
2018-03-07T16:32:23.297Z,99.90
2018-03-07T16:34:50.315Z,99.90
2018-03-07T16:37:16.591Z,99.90
2018-03-07T16:39:42.879Z,99.90
2018-03-07T16:42:10.010Z,99.90
2018-03-07T16:44:36.271Z,99.90
2018-03-07T16:47:03.321Z,99.90
2018-03-07T16:49:30.354Z,99.90
2018-03-07T16:51:57.363Z,99.90
2018-03-07T16:54:23.646Z,99.90
2018-03-07T16:56:50.698Z,99.90
2018-03-07T16:59:16.978Z,99.90
2018-03-07T17:01:43.254Z,99.90
2018-03-07T17:04:10.263Z,99.90
2018-03-07T17:06:36.552Z,99.90
2018-03-07T17:09:03.734Z,99.90
2018-03-07T17:11:30.018Z,99.90
2018-03-07T17:13:56.306Z,99.90
2018-03-07T17:16:22.578Z,99.90
2018-03-07T17:18:48.842Z,99.90
2018-03-07T17:21:15.146Z,99.90
2018-03-07T17:23:41.481Z,99.90
2018-03-07T17:26:07.756Z,99.90
2018-03-07T17:28:34.629Z,99.90
2018-03-07T17:31:00.955Z,99.90
2018-03-07T17:33:27.972Z,99.90
2018-03-07T17:35:54.271Z,99.90
2018-03-07T17:38:20.546Z,99.90
2018-03-07T17:40:46.853Z,99.90
2018-03-07T17:43:13.159Z,99.90
2018-03-07T17:45:39.438Z,99.90
2018-03-07T17:48:07.339Z,99.90
2018-03-07T17:50:33.623Z,99.90
2018-03-07T17:52:59.890Z,99.90
2018-03-07T17:55:26.256Z,99.90
2018-03-07T17:57:52.526Z,99.90
2018-03-07T18:00:18.804Z,99.90
2018-03-07T18:02:45.114Z,99.90
2018-03-07T18:05:12.175Z,99.90
2018-03-07T18:07:38.875Z,99.90
2018-03-07T18:10:06.166Z,99.90
2018-03-07T18:12:32.871Z,99.90
2018-03-07T18:14:59.138Z,99.90
2018-03-07T18:17:25.411Z,99.90
2018-03-07T18:19:51.683Z,99.90
2018-03-07T18:22:19.774Z,99.90
2018-03-07T18:24:46.046Z,99.90
2018-03-07T18:27:12.504Z,99.90
2018-03-07T18:29:38.790Z,99.90
2018-03-07T18:32:05.254Z,99.90
2018-03-07T18:34:31.569Z,99.90
2018-03-07T18:36:57.826Z,99.90
2018-03-07T18:39:24.859Z,99.90
2018-03-07T18:41:51.159Z,99.90
2018-03-07T18:44:17.432Z,99.90
2018-03-07T18:46:43.703Z,99.90
2018-03-07T18:49:09.990Z,99.90
2018-03-07T18:51:36.275Z,99.90
2018-03-07T18:54:02.558Z,99.90
2018-03-07T18:56:28.836Z,99.90
2018-03-07T18:58:55.872Z,99.90
2018-03-07T19:01:22.886Z,99.90
2018-03-07T19:03:49.172Z,99.90
2018-03-07T19:06:15.451Z,99.90
2018-03-07T19:08:41.729Z,99.90
2018-03-07T19:11:08.010Z,99.90
2018-03-07T19:13:34.291Z,99.90
2018-03-07T19:16:00.574Z,99.90
2018-03-07T19:18:27.279Z,99.90
2018-03-07T19:20:53.573Z,99.90
2018-03-07T19:23:21.594Z,99.90
2018-03-07T19:25:48.220Z,99.90
2018-03-07T19:28:14.523Z,99.90
2018-03-07T19:30:40.828Z,99.90
2018-03-07T19:33:07.166Z,99.90
2018-03-07T19:35:33.419Z,99.90
2018-03-07T19:37:59.708Z,99.90
2018-03-07T19:40:25.974Z,99.90
2018-03-07T19:42:52.274Z,99.90
2018-03-07T19:45:19.311Z,99.90
2018-03-07T19:47:45.591Z,99.90
2018-03-07T19:50:11.901Z,99.90
2018-03-07T19:52:38.916Z,99.90
2018-03-07T19:55:05.196Z,99.90
2018-03-07T19:57:31.895Z,99.90
2018-03-07T19:59:58.232Z,99.90
2018-03-07T20:02:25.274Z,99.90
2018-03-07T20:04:51.546Z,99.90
2018-03-07T20:07:17.863Z,99.90
2018-03-07T20:09:44.134Z,99.90
2018-03-07T20:12:10.442Z,99.90
2018-03-07T20:14:36.731Z,99.90
2018-03-07T20:17:03.023Z,99.90
2018-03-07T20:19:29.290Z,99.90
2018-03-07T20:21:55.584Z,99.90
2018-03-07T20:24:21.860Z,99.90
2018-03-07T20:26:48.918Z,99.90
2018-03-07T20:29:15.948Z,99.90
2018-03-07T20:31:42.982Z,99.90
2018-03-07T20:34:09.258Z,99.90
2018-03-07T20:36:36.503Z,99.90
2018-03-07T20:39:02.831Z,99.90
2018-03-07T20:41:29.126Z,99.90
2018-03-07T20:43:55.411Z,99.90
2018-03-07T20:46:21.693Z,99.90
2018-03-07T20:48:47.977Z,99.90
2018-03-07T20:51:14.270Z,99.90
2018-03-07T20:53:41.286Z,99.90
2018-03-07T20:56:07.591Z,99.90
2018-03-07T20:58:33.863Z,99.90
2018-03-07T21:01:00.876Z,99.90
2018-03-07T21:03:27.154Z,99.90
2018-03-07T21:05:54.168Z,99.90
2018-03-07T21:08:20.454Z,99.90
2018-03-07T21:10:46.711Z,99.90
2018-03-07T21:13:13.023Z,99.90
2018-03-07T21:15:39.310Z,99.90
2018-03-07T21:18:06.327Z,99.90
2018-03-07T21:20:32.599Z,99.90
2018-03-07T21:22:59.650Z,99.90
2018-03-07T21:25:27.748Z,99.90
2018-03-07T21:27:54.051Z,99.90
2018-03-07T21:30:20.366Z,99.90
2018-03-07T21:32:46.649Z,99.90
2018-03-07T21:35:13.086Z,99.90
2018-03-07T21:37:39.395Z,99.90
2018-03-07T21:40:05.669Z,99.90
2018-03-07T21:42:31.967Z,99.90
2018-03-07T21:44:59.268Z,99.90
2018-03-07T21:47:26.671Z,99.90
2018-03-07T21:49:52.946Z,99.90
2018-03-07T21:52:19.962Z,99.90
2018-03-07T21:54:46.246Z,99.90
2018-03-07T21:57:13.291Z,99.90
2018-03-07T21:59:40.307Z,99.90
2018-03-07T22:02:06.612Z,99.90
2018-03-07T22:04:32.903Z,99.90
2018-03-07T22:06:59.194Z,99.90
2018-03-07T22:09:25.471Z,99.90
2018-03-07T22:11:51.730Z,99.90
2018-03-07T22:14:18.003Z,99.90
2018-03-07T22:16:45.012Z,99.90
2018-03-07T22:19:11.290Z,99.90
2018-03-07T22:21:38.299Z,99.90
2018-03-07T22:24:04.578Z,99.90
2018-03-07T22:26:30.842Z,99.90
2018-03-07T22:28:57.106Z,99.90
2018-03-07T22:31:23.404Z,99.90
2018-03-07T22:33:49.678Z,99.90
2018-03-07T22:36:16.727Z,99.90
2018-03-07T22:38:43.726Z,99.90
2018-03-07T22:41:09.994Z,99.90
2018-03-07T22:43:37.082Z,99.90
2018-03-07T22:46:03.370Z,99.90
2018-03-07T22:48:30.442Z,99.90
2018-03-07T22:50:56.721Z,99.90
2018-03-07T22:53:22.994Z,99.90
2018-03-07T22:55:50.016Z,99.90
2018-03-07T22:58:16.286Z,99.90
2018-03-07T23:00:45.398Z,99.90
2018-03-07T23:03:11.693Z,99.90
2018-03-07T23:05:38.702Z,99.90
2018-03-07T23:08:04.976Z,99.90
2018-03-07T23:10:32.010Z,99.90
2018-03-07T23:12:59.010Z,99.90
2018-03-07T23:15:25.287Z,99.90
2018-03-07T23:17:52.303Z,99.90
2018-03-07T23:20:18.569Z,99.90
2018-03-07T23:22:46.610Z,99.90
2018-03-07T23:25:12.879Z,99.90
2018-03-07T23:27:39.179Z,99.90
2018-03-07T23:30:05.478Z,99.90
2018-03-07T23:32:31.803Z,99.90
2018-03-07T23:34:58.086Z,99.90
2018-03-07T23:37:25.154Z,99.90
2018-03-07T23:39:51.430Z,99.90
2018-03-07T23:42:18.774Z,99.90
2018-03-07T23:44:46.078Z,99.90
2018-03-07T23:47:14.145Z,99.90
2018-03-07T23:49:41.157Z,99.90
2018-03-07T23:52:07.466Z,99.90
2018-03-07T23:54:33.734Z,99.90
2018-03-07T23:57:00.019Z,99.90
2018-03-07T23:59:26.382Z,99.90
